createdAt,value
2022-09-27T00:01:53.982Z,1.27
2022-09-27T00:04:23.881Z,0.37
2022-09-27T00:06:51.259Z,0.40
2022-09-27T00:09:25.847Z,0.40
2022-09-27T00:11:55.922Z,1.70
2022-09-27T00:14:40.430Z,1.20
2022-09-27T00:17:07.927Z,2.30
2022-09-27T00:19:41.631Z,0.30
2022-09-27T00:22:11.073Z,0.93
2022-09-27T00:24:38.496Z,0.90
2022-09-27T00:27:12.076Z,0.40
2022-09-27T00:29:41.598Z,0.73
2022-09-27T00:32:08.920Z,0.10
2022-09-27T00:34:42.601Z,1.80
2022-09-27T00:37:11.497Z,0.20
2022-09-27T00:39:41.954Z,0.97
2022-09-27T00:42:19.650Z,1.07
2022-09-27T00:45:07.209Z,0.20
2022-09-27T00:47:55.698Z,0.20
2022-09-27T00:50:46.845Z,0.30
2022-09-27T00:53:46.694Z,1.13
2022-09-27T00:56:20.621Z,0.30
2022-09-27T00:59:01.635Z,0.53
2022-09-27T01:01:30.703Z,0.50
2022-09-27T01:04:13.772Z,0.30
2022-09-27T01:06:41.315Z,2.00
2022-09-27T01:09:28.749Z,0.83
2022-09-27T01:12:15.622Z,1.50
2022-09-27T01:15:05.716Z,2.17
2022-09-27T01:17:59.288Z,2.10
2022-09-27T01:20:55.757Z,3.27
2022-09-27T01:23:54.288Z,2.00
2022-09-27T01:26:46.760Z,1.07
2022-09-27T01:29:17.123Z,2.60
2022-09-27T01:32:15.077Z,1.63
2022-09-27T01:35:01.853Z,3.23
2022-09-27T01:38:13.737Z,1.50
2022-09-27T01:40:59.476Z,1.17
2022-09-27T01:43:52.962Z,0.43
2022-09-27T01:46:35.590Z,0.60
2022-09-27T01:49:15.084Z,2.23
2022-09-27T01:52:08.696Z,1.37
2022-09-27T01:54:52.236Z,2.10
2022-09-27T01:57:24.580Z,0.80
2022-09-27T02:00:08.244Z,1.13
2022-09-27T02:09:02.358Z,1.30
2022-09-27T02:11:45.267Z,3.07
2022-09-27T02:15:02.642Z,1.53
2022-09-27T02:18:34.317Z,2.03
2022-09-27T02:25:03.656Z,0.70
2022-09-27T02:27:54.177Z,3.07
2022-09-27T02:30:28.165Z,2.97
2022-09-27T02:32:57.602Z,3.20
2022-09-27T02:35:38.165Z,5.70
2022-09-27T02:38:07.161Z,3.07
2022-09-27T02:41:01.266Z,6.57
2022-09-27T02:43:32.014Z,7.83
2022-09-27T02:46:54.308Z,4.60
2022-09-27T02:49:46.755Z,4.03
2022-09-27T02:52:35.210Z,4.93
2022-09-27T02:55:27.309Z,4.57
2022-09-27T02:58:14.531Z,5.17
2022-09-27T03:01:18.216Z,7.77
2022-09-27T03:04:15.465Z,5.13
2022-09-27T03:06:46.451Z,9.20
2022-09-27T03:09:35.242Z,11.23
2022-09-27T03:12:05.427Z,6.80
2022-09-27T03:14:47.187Z,5.70
2022-09-27T03:17:14.645Z,13.93
2022-09-27T03:19:44.876Z,10.67
2022-09-27T03:22:19.189Z,9.47
2022-09-27T03:24:52.106Z,13.47
2022-09-27T03:27:20.590Z,9.20
2022-09-27T03:29:58.589Z,7.93
2022-09-27T03:32:27.000Z,8.37
2022-09-27T03:35:15.773Z,10.10
2022-09-27T03:37:47.221Z,9.73
2022-09-27T03:43:26.359Z,10.90
2022-09-27T03:46:00.807Z,7.70
2022-09-27T03:48:38.039Z,11.57
2022-09-27T03:51:18.062Z,6.97
2022-09-27T03:53:58.931Z,11.93
2022-09-27T03:56:48.086Z,10.40
2022-09-27T03:59:33.949Z,9.17
2022-09-27T04:02:02.084Z,8.53
2022-09-27T04:04:30.204Z,8.23
2022-09-27T04:07:06.891Z,6.87
2022-09-27T04:09:41.220Z,7.20
2022-09-27T04:12:33.192Z,6.63
2022-09-27T04:15:12.567Z,6.23
2022-09-27T04:17:56.478Z,7.20
2022-09-27T04:26:27.527Z,7.13
2022-09-27T04:29:17.540Z,8.83
2022-09-27T04:35:18.699Z,6.43
2022-09-27T04:40:54.636Z,5.07
2022-09-27T04:43:25.501Z,6.07
2022-09-27T04:45:54.169Z,7.93
2022-09-27T04:48:45.746Z,6.27
2022-09-27T04:51:26.458Z,4.20
2022-09-27T04:54:00.364Z,6.27
2022-09-27T04:56:27.826Z,6.50
2022-09-27T04:58:55.363Z,4.50
2022-09-27T05:01:29.527Z,3.03
2022-09-27T05:03:58.847Z,5.90
2022-09-27T05:06:26.283Z,4.43
2022-09-27T05:09:00.495Z,4.40
2022-09-27T05:11:28.037Z,9.20
2022-09-27T05:13:55.497Z,3.80
2022-09-27T05:16:32.030Z,2.47
2022-09-27T05:19:06.399Z,3.70
2022-09-27T05:21:40.461Z,2.80
2022-09-27T05:24:09.202Z,1.63
2022-09-27T05:26:37.756Z,1.30
2022-09-27T05:29:13.495Z,2.47
2022-09-27T05:31:44.682Z,3.40
2022-09-27T05:34:42.524Z,0.73
2022-09-27T05:37:13.638Z,2.13
2022-09-27T05:56:26.170Z,2.97
2022-09-27T05:58:53.723Z,2.77
2022-09-27T06:01:21.693Z,1.70
2022-09-27T06:03:56.204Z,2.27
2022-09-27T06:06:38.778Z,1.20
2022-09-27T06:09:37.152Z,3.00
2022-09-27T06:12:17.069Z,1.83
2022-09-27T06:15:00.617Z,1.47
2022-09-27T06:27:33.518Z,0.63
2022-09-27T06:30:20.378Z,0.60
2022-09-27T06:47:39.877Z,0.67
2022-09-27T06:50:12.561Z,1.63
2022-09-27T06:53:01.523Z,3.03
2022-09-27T06:55:29.254Z,0.83
2022-09-27T06:58:27.517Z,0.80
2022-09-27T07:01:19.100Z,1.17
2022-09-27T07:04:00.323Z,0.90
2022-09-27T07:06:38.627Z,1.83
2022-09-27T07:09:32.532Z,2.67
2022-09-27T07:12:05.106Z,2.97
2022-09-27T07:14:47.383Z,3.33
2022-09-27T07:17:21.589Z,6.97
2022-09-27T07:23:25.476Z,2.53
2022-09-27T07:26:15.458Z,1.63
2022-09-27T07:28:49.408Z,3.20
2022-09-27T07:31:24.395Z,1.60
2022-09-27T07:33:54.184Z,1.73
2022-09-27T07:39:10.764Z,1.37
2022-09-27T07:41:47.478Z,4.07
2022-09-27T07:44:22.744Z,1.63
2022-09-27T07:46:56.374Z,1.80
2022-09-27T07:49:34.562Z,0.93
2022-09-27T07:52:03.281Z,1.10
2022-09-27T07:54:30.776Z,3.77
2022-09-27T07:57:05.140Z,5.63
2022-09-27T07:59:47.282Z,1.87
2022-09-27T08:02:22.769Z,4.00
2022-09-27T08:04:58.602Z,4.10
2022-09-27T08:07:41.299Z,3.23
2022-09-27T08:10:16.461Z,3.30
2022-09-27T08:12:50.325Z,2.13
2022-09-27T08:15:18.028Z,2.17
2022-09-27T08:17:46.138Z,5.43
2022-09-27T08:20:21.358Z,3.67
2022-09-27T08:22:48.842Z,3.53
2022-09-27T08:25:17.018Z,4.67
2022-09-27T08:28:00.680Z,6.33
2022-09-27T08:30:32.495Z,2.30
2022-09-27T08:33:13.137Z,4.00
2022-09-27T08:35:40.724Z,5.23
2022-09-27T08:38:09.528Z,6.07
2022-09-27T08:41:05.697Z,4.20
2022-09-27T08:44:03.731Z,1.73
2022-09-27T08:46:57.605Z,2.63
2022-09-27T08:50:02.115Z,4.50
2022-09-27T08:53:10.606Z,2.37
2022-09-27T08:55:48.030Z,1.40
2022-09-27T08:58:40.746Z,4.30
2022-09-27T09:04:59.713Z,2.10
2022-09-27T09:11:44.788Z,4.40
2022-09-27T09:18:12.038Z,3.20
2022-09-27T09:31:12.949Z,12.20
2022-09-27T09:36:45.257Z,6.53
2022-09-27T09:59:14.173Z,5.23
2022-09-27T10:02:05.520Z,3.70
2022-09-27T10:04:50.681Z,4.50
2022-09-27T10:07:41.266Z,3.38
2022-09-27T10:10:34.136Z,5.53
2022-09-27T10:13:20.719Z,3.85
2022-09-27T10:16:12.752Z,3.25
2022-09-27T10:18:58.137Z,2.40
2022-09-27T10:21:49.111Z,2.60
2022-09-27T10:24:25.977Z,5.43
2022-09-27T10:30:01.171Z,2.53
2022-09-27T10:33:21.619Z,6.80
2022-09-27T10:39:37.769Z,2.50
2022-09-27T10:42:38.719Z,5.20
2022-09-27T10:45:37.853Z,2.35
2022-09-27T10:48:18.346Z,2.17
2022-09-27T10:51:12.913Z,3.28
2022-09-27T10:53:47.983Z,1.15
2022-09-27T10:56:38.141Z,1.45
2022-09-27T10:59:06.244Z,2.13
2022-09-27T11:01:57.432Z,1.65
2022-09-27T11:04:32.413Z,1.48
2022-09-27T11:07:22.176Z,1.10
2022-09-27T11:09:55.923Z,1.37
2022-09-27T11:12:31.421Z,2.20
2022-09-27T11:15:14.585Z,1.13
2022-09-27T11:18:08.314Z,0.83
2022-09-27T11:21:08.871Z,3.33
2022-09-27T11:23:51.280Z,1.20
2022-09-27T11:26:33.184Z,1.00
2022-09-27T11:29:43.324Z,3.30
2022-09-27T11:32:35.247Z,0.93
2022-09-27T11:35:23.448Z,0.60
2022-09-27T11:38:00.183Z,3.43
2022-09-27T11:40:47.342Z,2.17
2022-09-27T11:43:27.841Z,0.20
2022-09-27T11:46:19.190Z,0.33
2022-09-27T11:49:08.295Z,0.30
2022-09-27T11:52:24.326Z,0.50
2022-09-27T11:55:19.556Z,0.90
2022-09-27T11:58:19.271Z,0.70
2022-09-27T12:01:21.535Z,0.80
2022-09-27T12:04:17.307Z,2.37
2022-09-27T12:06:50.979Z,2.10
2022-09-27T12:09:36.289Z,1.17
2022-09-27T12:12:18.978Z,1.30
2022-09-27T12:15:21.290Z,0.30
2022-09-27T12:17:52.632Z,0.30
2022-09-27T12:20:29.410Z,3.93
2022-09-27T12:23:04.799Z,1.10
2022-09-27T12:25:43.325Z,0.30
2022-09-27T12:28:28.304Z,1.37
2022-09-27T12:31:29.047Z,0.80
2022-09-27T12:34:19.559Z,0.37
2022-09-27T12:37:06.349Z,0.20
2022-09-27T12:40:26.105Z,0.20
2022-09-27T12:43:20.314Z,0.40
2022-09-27T12:46:25.220Z,0.57
2022-09-27T12:49:21.281Z,1.60
2022-09-27T12:52:03.827Z,0.47
2022-09-27T12:54:59.333Z,1.47
2022-09-27T12:58:07.714Z,0.60
2022-09-27T13:01:02.304Z,0.53
2022-09-27T13:03:55.395Z,2.00
2022-09-27T13:06:48.397Z,1.03
2022-09-27T13:09:24.613Z,0.43
2022-09-27T13:12:19.433Z,1.13
2022-09-27T13:15:15.052Z,0.83
2022-09-27T13:17:50.470Z,1.17
2022-09-27T13:20:36.261Z,1.20
2022-09-27T13:23:32.378Z,1.00
2022-09-27T13:26:47.112Z,0.53
2022-09-27T13:29:37.347Z,0.90
2022-09-27T13:32:16.775Z,0.37
2022-09-27T13:34:54.380Z,0.50
2022-09-27T13:38:02.475Z,1.17
2022-09-27T13:40:45.478Z,3.20
2022-09-27T13:43:42.234Z,1.13
2022-09-27T14:08:20.251Z,2.20
2022-09-27T14:10:48.226Z,0.70
2022-09-27T14:13:27.247Z,1.83
2022-09-27T14:15:56.515Z,4.03
2022-09-27T14:18:24.130Z,0.50
2022-09-27T14:21:00.191Z,1.27
2022-09-27T14:23:27.830Z,0.50
2022-09-27T14:26:10.202Z,0.87
2022-09-27T14:28:43.837Z,0.57
2022-09-27T14:31:30.230Z,4.23
2022-09-27T14:34:11.537Z,0.80
2022-09-27T14:37:05.138Z,1.87
2022-09-27T14:39:37.817Z,1.07
2022-09-27T14:42:24.255Z,1.20
2022-09-27T14:44:53.551Z,2.07
2022-09-27T14:47:31.197Z,1.10
2022-09-27T14:50:05.617Z,1.67
2022-09-27T14:52:42.195Z,1.17
2022-09-27T14:55:17.435Z,2.13
2022-09-27T14:58:29.518Z,1.67
2022-09-27T15:00:59.901Z,1.93
2022-09-27T15:03:43.658Z,5.03
2022-09-27T15:06:32.158Z,1.33
2022-09-27T15:09:07.224Z,1.50
2022-09-27T15:11:37.356Z,1.30
2022-09-27T15:14:05.982Z,1.47
2022-09-27T15:16:41.280Z,0.70
2022-09-27T15:19:19.158Z,1.57
2022-09-27T15:21:54.325Z,2.00
2022-09-27T15:24:47.578Z,2.00
2022-09-27T15:27:32.471Z,1.83
2022-09-27T15:30:21.041Z,1.17
2022-09-27T15:32:58.230Z,2.10
2022-09-27T15:35:36.147Z,1.77
2022-09-27T15:38:54.570Z,2.07
2022-09-27T15:41:24.818Z,1.27
2022-09-27T15:43:59.537Z,1.20
2022-09-27T15:46:51.225Z,2.93
2022-09-27T15:49:44.438Z,2.27
2022-09-27T15:52:49.028Z,3.00
2022-09-27T15:55:26.707Z,2.83
2022-09-27T15:58:00.654Z,5.50
2022-09-27T16:00:38.800Z,3.10
2022-09-27T16:03:06.495Z,4.17
2022-09-27T16:05:53.485Z,6.17
2022-09-27T16:08:23.260Z,2.30
2022-09-27T16:11:01.595Z,4.77
2022-09-27T16:13:33.172Z,1.37
2022-09-27T16:16:11.300Z,3.20
2022-09-27T16:18:39.851Z,3.37
2022-09-27T16:21:17.274Z,2.27
2022-09-27T16:23:44.850Z,3.13
2022-09-27T16:26:16.380Z,2.10
2022-09-27T16:28:56.267Z,2.93
2022-09-27T16:31:24.337Z,2.60
2022-09-27T16:33:53.979Z,2.40
2022-09-27T16:36:28.333Z,1.33
2022-09-27T16:38:59.488Z,3.03
2022-09-27T16:41:35.507Z,3.40
2022-09-27T16:44:11.052Z,1.67
2022-09-27T16:46:49.236Z,2.27
2022-09-27T16:49:35.326Z,2.63
2022-09-27T16:52:09.164Z,1.73
2022-09-27T16:54:36.889Z,2.10
2022-09-27T16:57:05.502Z,1.60
2022-09-27T16:59:40.247Z,2.70
2022-09-27T17:02:08.993Z,0.80
2022-09-27T17:04:36.427Z,4.17
2022-09-27T17:07:13.240Z,4.70
2022-09-27T17:09:40.648Z,2.50
2022-09-27T17:12:20.105Z,2.80
2022-09-27T17:14:48.996Z,1.50
2022-09-27T17:17:18.637Z,0.90
2022-09-27T17:19:52.751Z,1.27
2022-09-27T17:22:20.148Z,3.50
2022-09-27T17:24:47.739Z,3.63
2022-09-27T17:27:25.721Z,1.87
2022-09-27T17:29:55.771Z,1.63
2022-09-27T17:32:31.896Z,0.87
2022-09-27T17:35:04.278Z,1.33
2022-09-27T17:37:31.771Z,2.03
2022-09-27T17:40:06.126Z,1.10
2022-09-27T17:42:36.129Z,3.17
2022-09-27T17:45:04.011Z,1.77
2022-09-27T17:47:57.239Z,0.97
2022-09-27T17:50:31.116Z,1.87
2022-09-27T17:53:06.112Z,4.70
2022-09-27T17:55:36.711Z,0.90
2022-09-27T17:58:05.029Z,1.00
2022-09-27T18:00:39.013Z,0.70
2022-09-27T18:03:07.383Z,1.07
2022-09-27T18:05:37.432Z,0.93
2022-09-27T18:08:15.374Z,1.33
2022-09-27T18:10:43.616Z,2.30
2022-09-27T18:13:14.141Z,2.30
2022-09-27T18:15:51.234Z,1.17
2022-09-27T18:18:19.018Z,6.23
2022-09-27T18:20:49.360Z,2.17
2022-09-27T18:23:23.055Z,1.00
2022-09-27T18:25:58.277Z,0.73
2022-09-27T18:28:35.250Z,1.03
2022-09-27T18:31:11.549Z,1.70
2022-09-27T18:33:46.068Z,1.47
2022-09-27T18:36:20.972Z,0.97
2022-09-27T18:39:00.418Z,4.43
2022-09-27T18:41:32.535Z,0.60
2022-09-27T18:44:09.712Z,1.13
2022-09-27T18:46:38.152Z,5.13
2022-09-27T18:49:08.520Z,22.97
2022-09-27T18:51:44.340Z,14.63
2022-09-27T18:54:21.065Z,8.30
2022-09-27T18:56:57.340Z,2.77
2022-09-27T18:59:24.731Z,1.13
2022-09-27T19:01:58.545Z,1.60
2022-09-27T19:04:33.338Z,1.93
2022-09-27T19:07:08.267Z,2.83
2022-09-27T19:09:42.473Z,2.83
2022-09-27T19:12:10.928Z,2.70
2022-09-27T19:14:38.634Z,1.93
2022-09-27T19:17:12.333Z,5.57
2022-09-27T19:19:43.296Z,3.03
2022-09-27T19:22:10.922Z,2.97
2022-09-27T19:24:45.336Z,2.80
2022-09-27T19:27:13.141Z,2.37
2022-09-27T19:29:41.036Z,2.93
2022-09-27T19:32:15.362Z,2.30
2022-09-27T19:34:43.397Z,2.43
2022-09-27T19:37:11.274Z,3.03
2022-09-27T19:39:45.423Z,4.83
2022-09-27T19:42:16.840Z,2.20
2022-09-27T19:44:52.725Z,1.67
2022-09-27T19:47:20.605Z,2.37
2022-09-27T19:49:49.458Z,1.93
2022-09-27T19:52:23.537Z,4.10
2022-09-27T19:54:55.460Z,2.83
2022-09-27T19:57:23.226Z,2.10
2022-09-27T19:59:57.543Z,2.30
2022-09-27T20:02:30.684Z,4.53
2022-09-27T20:05:07.899Z,2.27
2022-09-27T20:07:44.544Z,1.17
2022-09-27T20:10:20.062Z,1.30
2022-09-27T20:12:56.779Z,2.83
2022-09-27T20:15:31.502Z,2.87
2022-09-27T20:18:04.766Z,0.50
2022-09-27T20:20:45.684Z,1.27
2022-09-27T20:23:13.557Z,1.70
2022-09-27T20:25:43.181Z,1.57
2022-09-27T20:28:17.841Z,2.00
2022-09-27T20:31:03.783Z,4.43
2022-09-27T20:33:55.544Z,3.00
2022-09-27T20:36:37.076Z,2.73
2022-09-27T20:39:13.601Z,3.10
2022-09-27T20:41:49.921Z,2.60
2022-09-27T20:44:26.514Z,1.37
2022-09-27T20:46:54.323Z,2.83
2022-09-27T20:49:27.065Z,4.20
2022-09-27T20:52:05.643Z,4.60
2022-09-27T20:54:38.197Z,22.80
2022-09-27T20:57:12.808Z,62.00
2022-09-27T20:59:40.424Z,39.23
2022-09-27T21:02:10.544Z,26.97
2022-09-27T21:04:46.232Z,20.90
2022-09-27T21:07:35.670Z,3.67
2022-09-27T21:10:10.703Z,4.63
2022-09-27T21:12:41.802Z,30.13
2022-09-27T21:15:11.492Z,6.77
2022-09-27T21:17:46.602Z,26.57
2022-09-27T21:20:19.163Z,5.87
2022-09-27T21:23:00.994Z,6.10
2022-09-27T21:25:31.314Z,12.43
2022-09-27T21:28:05.548Z,11.73
2022-09-27T21:30:36.138Z,18.43
2022-09-27T21:33:13.701Z,18.30
2022-09-27T21:35:49.889Z,23.00
2022-09-27T21:38:25.726Z,7.70
2022-09-27T21:41:02.071Z,1.10
2022-09-27T21:43:37.741Z,0.87
2022-09-27T21:46:08.363Z,0.93
2022-09-27T21:48:44.712Z,1.50
2022-09-27T21:51:13.889Z,0.70
2022-09-27T21:54:01.012Z,3.37
2022-09-27T21:56:37.489Z,0.70
2022-09-27T21:59:18.998Z,1.43
2022-09-27T22:01:48.054Z,1.67
2022-09-27T22:04:16.829Z,1.13
2022-09-27T22:06:51.942Z,0.67
2022-09-27T22:09:26.028Z,0.83
2022-09-27T22:11:59.936Z,0.50
2022-09-27T22:14:28.755Z,0.60
2022-09-27T22:16:56.222Z,2.63
2022-09-27T22:19:36.506Z,0.73
2022-09-27T22:22:06.048Z,1.20
2022-09-27T22:24:47.867Z,0.77
2022-09-27T22:30:26.908Z,2.07
2022-09-27T22:33:14.547Z,1.27
2022-09-27T22:35:56.921Z,1.00
2022-09-27T22:38:33.067Z,0.63
2022-09-27T23:05:04.869Z,1.43
2022-09-27T23:06:08.642Z,1.60
2022-09-27T23:07:53.849Z,1.03
2022-09-27T23:33:37.589Z,0.77
2022-09-27T23:36:13.593Z,1.67
2022-09-27T23:38:54.930Z,1.10
2022-09-27T23:41:47.635Z,1.53
2022-09-27T23:44:22.333Z,0.70
2022-09-27T23:46:49.930Z,1.37
2022-09-27T23:49:19.297Z,2.87
2022-09-27T23:51:53.471Z,0.63
2022-09-27T23:54:21.443Z,1.97
2022-09-27T23:56:49.518Z,2.20
2022-09-27T23:59:24.294Z,3.23
